sensor_id;sensor_type;location;lat;lon;timestamp;P1;durP1;ratioP1;P2;durP2;ratioP2
19219;SDS011;9744;49.364;7.484;2023-05-14T00:01:23;3.42;;;3.10;;
19219;SDS011;9744;49.364;7.484;2023-05-14T00:03:50;2.70;;;2.50;;
19219;SDS011;9744;49.364;7.484;2023-05-14T00:06:19;4.18;;;3.38;;
19219;SDS011;9744;49.364;7.484;2023-05-14T00:08:46;5.93;;;4.13;;
19219;SDS011;9744;49.364;7.484;2023-05-14T00:11:13;4.65;;;3.40;;
19219;SDS011;9744;49.364;7.484;2023-05-14T00:13:41;3.80;;;3.13;;
19219;SDS011;9744;49.364;7.484;2023-05-14T00:16:10;7.25;;;3.80;;
19219;SDS011;9744;49.364;7.484;2023-05-14T00:18:37;4.90;;;3.55;;
19219;SDS011;9744;49.364;7.484;2023-05-14T00:21:05;7.03;;;3.70;;
19219;SDS011;9744;49.364;7.484;2023-05-14T00:23:33;5.28;;;3.50;;
19219;SDS011;9744;49.364;7.484;2023-05-14T00:26:01;3.97;;;3.38;;
19219;SDS011;9744;49.364;7.484;2023-05-14T00:28:28;7.25;;;3.88;;
19219;SDS011;9744;49.364;7.484;2023-05-14T00:30:55;4.20;;;3.70;;
19219;SDS011;9744;49.364;7.484;2023-05-14T00:33:22;6.13;;;3.65;;
19219;SDS011;9744;49.364;7.484;2023-05-14T00:35:50;4.03;;;3.65;;
19219;SDS011;9744;49.364;7.484;2023-05-14T00:38:17;5.57;;;3.88;;
19219;SDS011;9744;49.364;7.484;2023-05-14T00:40:45;5.43;;;3.72;;
19219;SDS011;9744;49.364;7.484;2023-05-14T00:43:16;7.00;;;3.75;;
19219;SDS011;9744;49.364;7.484;2023-05-14T00:45:43;3.58;;;3.05;;
19219;SDS011;9744;49.364;7.484;2023-05-14T00:48:11;3.72;;;3.42;;
19219;SDS011;9744;49.364;7.484;2023-05-14T00:50:39;5.15;;;3.20;;
19219;SDS011;9744;49.364;7.484;2023-05-14T00:53:06;3.80;;;3.40;;
19219;SDS011;9744;49.364;7.484;2023-05-14T00:55:35;3.22;;;2.92;;
19219;SDS011;9744;49.364;7.484;2023-05-14T00:58:06;4.28;;;3.20;;
19219;SDS011;9744;49.364;7.484;2023-05-14T01:00:35;3.83;;;3.45;;
19219;SDS011;9744;49.364;7.484;2023-05-14T01:03:02;3.92;;;3.53;;
19219;SDS011;9744;49.364;7.484;2023-05-14T01:05:46;4.53;;;3.70;;
19219;SDS011;9744;49.364;7.484;2023-05-14T01:08:24;4.15;;;3.22;;
19219;SDS011;9744;49.364;7.484;2023-05-14T01:10:59;6.70;;;4.38;;
19219;SDS011;9744;49.364;7.484;2023-05-14T01:13:37;3.53;;;3.22;;
19219;SDS011;9744;49.364;7.484;2023-05-14T01:16:11;3.95;;;3.35;;
19219;SDS011;9744;49.364;7.484;2023-05-14T01:18:40;3.50;;;2.83;;
19219;SDS011;9744;49.364;7.484;2023-05-14T01:23:59;3.83;;;3.08;;
19219;SDS011;9744;49.364;7.484;2023-05-14T01:26:27;5.38;;;4.00;;
19219;SDS011;9744;49.364;7.484;2023-05-14T01:28:57;4.30;;;3.45;;
19219;SDS011;9744;49.364;7.484;2023-05-14T01:31:30;4.80;;;3.38;;
19219;SDS011;9744;49.364;7.484;2023-05-14T01:33:58;3.47;;;3.17;;
19219;SDS011;9744;49.364;7.484;2023-05-14T01:36:29;3.50;;;3.20;;
19219;SDS011;9744;49.364;7.484;2023-05-14T01:38:57;6.63;;;3.92;;
19219;SDS011;9744;49.364;7.484;2023-05-14T01:41:28;4.97;;;3.40;;
19219;SDS011;9744;49.364;7.484;2023-05-14T01:43:56;5.00;;;3.78;;
19219;SDS011;9744;49.364;7.484;2023-05-14T01:46:24;8.00;;;4.07;;
19219;SDS011;9744;49.364;7.484;2023-05-14T01:48:51;4.22;;;3.38;;
19219;SDS011;9744;49.364;7.484;2023-05-14T01:51:18;6.45;;;4.53;;
19219;SDS011;9744;49.364;7.484;2023-05-14T01:53:47;6.50;;;4.03;;
19219;SDS011;9744;49.364;7.484;2023-05-14T01:56:14;4.28;;;3.47;;
19219;SDS011;9744;49.364;7.484;2023-05-14T01:58:41;4.10;;;3.67;;
19219;SDS011;9744;49.364;7.484;2023-05-14T02:01:09;7.35;;;3.60;;
19219;SDS011;9744;49.364;7.484;2023-05-14T02:03:36;4.55;;;3.45;;
19219;SDS011;9744;49.364;7.484;2023-05-14T02:06:04;8.05;;;3.78;;
19219;SDS011;9744;49.364;7.484;2023-05-14T02:08:31;5.18;;;3.00;;
19219;SDS011;9744;49.364;7.484;2023-05-14T02:11:00;4.68;;;3.42;;
19219;SDS011;9744;49.364;7.484;2023-05-14T02:13:27;5.07;;;3.20;;
19219;SDS011;9744;49.364;7.484;2023-05-14T02:15:55;7.88;;;3.83;;
19219;SDS011;9744;49.364;7.484;2023-05-14T02:18:22;3.95;;;3.50;;
19219;SDS011;9744;49.364;7.484;2023-05-14T02:20:49;3.10;;;2.80;;
19219;SDS011;9744;49.364;7.484;2023-05-14T02:23:16;5.63;;;3.33;;
19219;SDS011;9744;49.364;7.484;2023-05-14T02:25:43;4.07;;;3.67;;
19219;SDS011;9744;49.364;7.484;2023-05-14T02:28:12;6.13;;;3.80;;
19219;SDS011;9744;49.364;7.484;2023-05-14T02:30:39;4.65;;;3.47;;
19219;SDS011;9744;49.364;7.484;2023-05-14T02:33:07;6.72;;;3.10;;
19219;SDS011;9744;49.364;7.484;2023-05-14T02:35:34;4.00;;;3.47;;
19219;SDS011;9744;49.364;7.484;2023-05-14T02:38:01;4.40;;;3.63;;
19219;SDS011;9744;49.364;7.484;2023-05-14T02:40:30;3.83;;;3.17;;
19219;SDS011;9744;49.364;7.484;2023-05-14T02:42:57;3.72;;;3.33;;
19219;SDS011;9744;49.364;7.484;2023-05-14T02:45:26;7.18;;;3.47;;
19219;SDS011;9744;49.364;7.484;2023-05-14T02:47:53;4.47;;;4.07;;
19219;SDS011;9744;49.364;7.484;2023-05-14T02:50:21;4.20;;;3.63;;
19219;SDS011;9744;49.364;7.484;2023-05-14T02:52:48;5.10;;;3.45;;
19219;SDS011;9744;49.364;7.484;2023-05-14T02:55:16;3.00;;;2.80;;
19219;SDS011;9744;49.364;7.484;2023-05-14T02:57:43;3.42;;;3.13;;
19219;SDS011;9744;49.364;7.484;2023-05-14T03:00:11;7.13;;;4.20;;
19219;SDS011;9744;49.364;7.484;2023-05-14T03:02:41;4.65;;;3.85;;
19219;SDS011;9744;49.364;7.484;2023-05-14T03:05:08;5.85;;;3.35;;
19219;SDS011;9744;49.364;7.484;2023-05-14T03:07:36;7.45;;;3.22;;
19219;SDS011;9744;49.364;7.484;2023-05-14T03:10:04;4.70;;;4.20;;
19219;SDS011;9744;49.364;7.484;2023-05-14T03:12:32;5.75;;;3.55;;
19219;SDS011;9744;49.364;7.484;2023-05-14T03:14:59;4.63;;;3.63;;
19219;SDS011;9744;49.364;7.484;2023-05-14T03:17:26;4.20;;;3.72;;
19219;SDS011;9744;49.364;7.484;2023-05-14T03:19:56;3.83;;;3.53;;
19219;SDS011;9744;49.364;7.484;2023-05-14T03:22:25;3.65;;;3.35;;
19219;SDS011;9744;49.364;7.484;2023-05-14T03:24:53;4.20;;;3.80;;
19219;SDS011;9744;49.364;7.484;2023-05-14T03:27:21;5.28;;;3.50;;
19219;SDS011;9744;49.364;7.484;2023-05-14T03:29:48;4.95;;;3.00;;
19219;SDS011;9744;49.364;7.484;2023-05-14T03:32:16;4.35;;;3.10;;
19219;SDS011;9744;49.364;7.484;2023-05-14T03:34:43;4.78;;;3.45;;
19219;SDS011;9744;49.364;7.484;2023-05-14T03:37:12;4.13;;;3.28;;
19219;SDS011;9744;49.364;7.484;2023-05-14T03:39:39;4.80;;;3.75;;
19219;SDS011;9744;49.364;7.484;2023-05-14T03:42:07;5.13;;;3.10;;
19219;SDS011;9744;49.364;7.484;2023-05-14T03:44:34;5.28;;;3.80;;
19219;SDS011;9744;49.364;7.484;2023-05-14T03:47:02;7.10;;;3.80;;
19219;SDS011;9744;49.364;7.484;2023-05-14T03:49:30;2.92;;;2.72;;
19219;SDS011;9744;49.364;7.484;2023-05-14T03:51:57;5.32;;;3.60;;
19219;SDS011;9744;49.364;7.484;2023-05-14T03:54:26;4.05;;;3.58;;
19219;SDS011;9744;49.364;7.484;2023-05-14T03:56:53;4.50;;;3.70;;
19219;SDS011;9744;49.364;7.484;2023-05-14T03:59:20;4.10;;;3.42;;
19219;SDS011;9744;49.364;7.484;2023-05-14T04:01:47;3.67;;;3.20;;
19219;SDS011;9744;49.364;7.484;2023-05-14T04:04:15;5.20;;;4.15;;
19219;SDS011;9744;49.364;7.484;2023-05-14T04:06:42;6.50;;;4.10;;
19219;SDS011;9744;49.364;7.484;2023-05-14T04:09:09;3.88;;;3.20;;
19219;SDS011;9744;49.364;7.484;2023-05-14T04:11:38;5.38;;;4.03;;
19219;SDS011;9744;49.364;7.484;2023-05-14T04:14:05;4.10;;;3.10;;
19219;SDS011;9744;49.364;7.484;2023-05-14T04:16:34;4.70;;;2.95;;
19219;SDS011;9744;49.364;7.484;2023-05-14T04:19:01;3.50;;;3.20;;
19219;SDS011;9744;49.364;7.484;2023-05-14T04:21:30;3.95;;;3.35;;
19219;SDS011;9744;49.364;7.484;2023-05-14T04:23:57;4.07;;;3.60;;
19219;SDS011;9744;49.364;7.484;2023-05-14T04:26:24;5.35;;;3.47;;
19219;SDS011;9744;49.364;7.484;2023-05-14T04:28:53;5.28;;;3.38;;
19219;SDS011;9744;49.364;7.484;2023-05-14T04:31:20;4.03;;;3.13;;
19219;SDS011;9744;49.364;7.484;2023-05-14T04:33:47;5.05;;;4.05;;
19219;SDS011;9744;49.364;7.484;2023-05-14T04:36:17;6.28;;;3.88;;
19219;SDS011;9744;49.364;7.484;2023-05-14T04:38:44;4.97;;;4.43;;
19219;SDS011;9744;49.364;7.484;2023-05-14T04:41:12;4.18;;;3.78;;
19219;SDS011;9744;49.364;7.484;2023-05-14T04:43:39;6.07;;;3.10;;
19219;SDS011;9744;49.364;7.484;2023-05-14T04:46:08;3.70;;;3.30;;
19219;SDS011;9744;49.364;7.484;2023-05-14T04:48:35;5.15;;;4.13;;
19219;SDS011;9744;49.364;7.484;2023-05-14T04:51:03;3.63;;;3.33;;
19219;SDS011;9744;49.364;7.484;2023-05-14T04:53:31;4.32;;;3.40;;
19219;SDS011;9744;49.364;7.484;2023-05-14T04:55:58;5.15;;;4.03;;
19219;SDS011;9744;49.364;7.484;2023-05-14T04:58:25;4.40;;;3.72;;
19219;SDS011;9744;49.364;7.484;2023-05-14T05:00:53;4.60;;;3.95;;
19219;SDS011;9744;49.364;7.484;2023-05-14T05:03:22;6.22;;;4.30;;
19219;SDS011;9744;49.364;7.484;2023-05-14T05:05:49;5.95;;;3.60;;
19219;SDS011;9744;49.364;7.484;2023-05-14T05:08:16;4.85;;;4.25;;
19219;SDS011;9744;49.364;7.484;2023-05-14T05:10:43;4.22;;;3.83;;
19219;SDS011;9744;49.364;7.484;2023-05-14T05:13:11;3.95;;;3.35;;
19219;SDS011;9744;49.364;7.484;2023-05-14T05:15:38;5.32;;;3.63;;
19219;SDS011;9744;49.364;7.484;2023-05-14T05:18:05;4.22;;;3.53;;
19219;SDS011;9744;49.364;7.484;2023-05-14T05:20:35;4.95;;;3.85;;
19219;SDS011;9744;49.364;7.484;2023-05-14T05:23:02;5.88;;;4.00;;
19219;SDS011;9744;49.364;7.484;2023-05-14T05:25:30;6.15;;;3.20;;
19219;SDS011;9744;49.364;7.484;2023-05-14T05:27:57;4.40;;;3.45;;
19219;SDS011;9744;49.364;7.484;2023-05-14T05:30:24;4.15;;;3.42;;
19219;SDS011;9744;49.364;7.484;2023-05-14T05:32:51;4.70;;;3.15;;
19219;SDS011;9744;49.364;7.484;2023-05-14T05:35:21;5.50;;;3.65;;
19219;SDS011;9744;49.364;7.484;2023-05-14T05:37:51;4.93;;;3.10;;
19219;SDS011;9744;49.364;7.484;2023-05-14T05:40:18;4.28;;;3.60;;
19219;SDS011;9744;49.364;7.484;2023-05-14T05:42:45;3.50;;;2.88;;
19219;SDS011;9744;49.364;7.484;2023-05-14T05:45:13;3.65;;;2.90;;
19219;SDS011;9744;49.364;7.484;2023-05-14T05:47:40;6.40;;;3.25;;
19219;SDS011;9744;49.364;7.484;2023-05-14T05:50:07;4.68;;;3.25;;
19219;SDS011;9744;49.364;7.484;2023-05-14T05:52:36;9.95;;;4.07;;
19219;SDS011;9744;49.364;7.484;2023-05-14T05:55:06;3.42;;;3.05;;
19219;SDS011;9744;49.364;7.484;2023-05-14T05:57:34;4.03;;;3.38;;
19219;SDS011;9744;49.364;7.484;2023-05-14T06:00:01;4.28;;;3.60;;
19219;SDS011;9744;49.364;7.484;2023-05-14T06:02:38;3.45;;;2.95;;
19219;SDS011;9744;49.364;7.484;2023-05-14T06:05:06;4.15;;;3.50;;
19219;SDS011;9744;49.364;7.484;2023-05-14T06:07:34;5.05;;;3.60;;
19219;SDS011;9744;49.364;7.484;2023-05-14T06:10:01;4.82;;;4.32;;
19219;SDS011;9744;49.364;7.484;2023-05-14T06:12:30;4.63;;;3.88;;
19219;SDS011;9744;49.364;7.484;2023-05-14T06:14:57;5.45;;;3.60;;
19219;SDS011;9744;49.364;7.484;2023-05-14T06:17:25;6.70;;;4.95;;
19219;SDS011;9744;49.364;7.484;2023-05-14T06:19:52;9.23;;;6.03;;
19219;SDS011;9744;49.364;7.484;2023-05-14T06:22:20;5.35;;;4.53;;
19219;SDS011;9744;49.364;7.484;2023-05-14T06:24:47;5.90;;;4.65;;
19219;SDS011;9744;49.364;7.484;2023-05-14T06:27:14;5.72;;;4.50;;
19219;SDS011;9744;49.364;7.484;2023-05-14T06:29:42;6.35;;;4.78;;
19219;SDS011;9744;49.364;7.484;2023-05-14T06:32:10;8.30;;;4.85;;
19219;SDS011;9744;49.364;7.484;2023-05-14T06:34:39;7.53;;;5.97;;
19219;SDS011;9744;49.364;7.484;2023-05-14T06:37:07;11.32;;;6.63;;
19219;SDS011;9744;49.364;7.484;2023-05-14T06:39:34;5.20;;;4.70;;
19219;SDS011;9744;49.364;7.484;2023-05-14T06:42:02;6.68;;;4.68;;
19219;SDS011;9744;49.364;7.484;2023-05-14T06:44:30;6.15;;;4.20;;
19219;SDS011;9744;49.364;7.484;2023-05-14T06:46:59;6.13;;;4.60;;
19219;SDS011;9744;49.364;7.484;2023-05-14T06:49:26;7.60;;;4.47;;
19219;SDS011;9744;49.364;7.484;2023-05-14T06:51:54;4.93;;;4.28;;
19219;SDS011;9744;49.364;7.484;2023-05-14T06:54:21;5.85;;;4.43;;
19219;SDS011;9744;49.364;7.484;2023-05-14T06:56:48;5.88;;;4.10;;
19219;SDS011;9744;49.364;7.484;2023-05-14T06:59:15;3.45;;;3.15;;
19219;SDS011;9744;49.364;7.484;2023-05-14T07:01:43;3.50;;;3.20;;
19219;SDS011;9744;49.364;7.484;2023-05-14T07:04:11;5.85;;;4.10;;
19219;SDS011;9744;49.364;7.484;2023-05-14T07:06:39;4.28;;;3.88;;
19219;SDS011;9744;49.364;7.484;2023-05-14T07:09:06;9.40;;;5.43;;
19219;SDS011;9744;49.364;7.484;2023-05-14T07:11:34;11.02;;;8.02;;
19219;SDS011;9744;49.364;7.484;2023-05-14T07:14:01;8.70;;;5.50;;
19219;SDS011;9744;49.364;7.484;2023-05-14T07:16:29;7.95;;;5.15;;
19219;SDS011;9744;49.364;7.484;2023-05-14T07:18:56;8.27;;;5.93;;
19219;SDS011;9744;49.364;7.484;2023-05-14T07:21:26;7.38;;;4.25;;
19219;SDS011;9744;49.364;7.484;2023-05-14T07:23:53;5.65;;;3.45;;
19219;SDS011;9744;49.364;7.484;2023-05-14T07:26:20;3.97;;;3.53;;
19219;SDS011;9744;49.364;7.484;2023-05-14T07:28:48;3.40;;;3.10;;
19219;SDS011;9744;49.364;7.484;2023-05-14T07:31:15;3.45;;;3.15;;
19219;SDS011;9744;49.364;7.484;2023-05-14T07:33:43;3.88;;;3.25;;
19219;SDS011;9744;49.364;7.484;2023-05-14T07:36:10;6.00;;;3.15;;
19219;SDS011;9744;49.364;7.484;2023-05-14T07:38:39;4.28;;;3.70;;
19219;SDS011;9744;49.364;7.484;2023-05-14T07:41:06;4.47;;;3.13;;
19219;SDS011;9744;49.364;7.484;2023-05-14T07:43:35;6.85;;;4.05;;
19219;SDS011;9744;49.364;7.484;2023-05-14T07:46:04;4.03;;;3.60;;
19219;SDS011;9744;49.364;7.484;2023-05-14T07:48:31;5.25;;;3.20;;
19219;SDS011;9744;49.364;7.484;2023-05-14T07:50:59;3.40;;;2.95;;
19219;SDS011;9744;49.364;7.484;2023-05-14T07:53:26;4.20;;;2.88;;
19219;SDS011;9744;49.364;7.484;2023-05-14T07:55:55;3.75;;;2.60;;
19219;SDS011;9744;49.364;7.484;2023-05-14T07:58:24;2.97;;;2.67;;
19219;SDS011;9744;49.364;7.484;2023-05-14T08:00:52;4.35;;;2.90;;
19219;SDS011;9744;49.364;7.484;2023-05-14T08:03:19;3.38;;;2.97;;
19219;SDS011;9744;49.364;7.484;2023-05-14T08:05:46;4.50;;;2.88;;
19219;SDS011;9744;49.364;7.484;2023-05-14T08:08:13;3.00;;;2.70;;
19219;SDS011;9744;49.364;7.484;2023-05-14T08:10:41;3.08;;;2.50;;
19219;SDS011;9744;49.364;7.484;2023-05-14T08:13:10;5.88;;;2.80;;
19219;SDS011;9744;49.364;7.484;2023-05-14T08:15:37;4.40;;;2.75;;
19219;SDS011;9744;49.364;7.484;2023-05-14T08:18:05;3.15;;;2.60;;
19219;SDS011;9744;49.364;7.484;2023-05-14T08:20:32;2.97;;;2.58;;
19219;SDS011;9744;49.364;7.484;2023-05-14T08:23:00;2.50;;;2.30;;
19219;SDS011;9744;49.364;7.484;2023-05-14T08:25:27;4.10;;;2.55;;
19219;SDS011;9744;49.364;7.484;2023-05-14T08:27:55;4.45;;;2.40;;
19219;SDS011;9744;49.364;7.484;2023-05-14T08:30:25;4.20;;;2.10;;
19219;SDS011;9744;49.364;7.484;2023-05-14T08:32:52;2.30;;;2.10;;
19219;SDS011;9744;49.364;7.484;2023-05-14T08:35:19;2.67;;;2.45;;
19219;SDS011;9744;49.364;7.484;2023-05-14T08:37:47;2.30;;;2.10;;
19219;SDS011;9744;49.364;7.484;2023-05-14T08:40:15;4.07;;;2.83;;
19219;SDS011;9744;49.364;7.484;2023-05-14T08:42:43;2.60;;;2.40;;
19219;SDS011;9744;49.364;7.484;2023-05-14T08:45:12;3.97;;;2.10;;
19219;SDS011;9744;49.364;7.484;2023-05-14T08:47:46;2.72;;;2.53;;
19219;SDS011;9744;49.364;7.484;2023-05-14T08:50:14;2.50;;;2.30;;
19219;SDS011;9744;49.364;7.484;2023-05-14T08:52:43;3.33;;;2.60;;
19219;SDS011;9744;49.364;7.484;2023-05-14T08:55:10;2.70;;;2.50;;
19219;SDS011;9744;49.364;7.484;2023-05-14T08:57:38;3.72;;;2.90;;
19219;SDS011;9744;49.364;7.484;2023-05-14T09:00:06;2.42;;;2.17;;
19219;SDS011;9744;49.364;7.484;2023-05-14T09:02:36;2.70;;;2.38;;
19219;SDS011;9744;49.364;7.484;2023-05-14T09:05:08;3.20;;;2.05;;
19219;SDS011;9744;49.364;7.484;2023-05-14T09:07:36;2.95;;;1.90;;
19219;SDS011;9744;49.364;7.484;2023-05-14T09:10:04;3.22;;;2.80;;
19219;SDS011;9744;49.364;7.484;2023-05-14T09:12:33;2.47;;;2.28;;
19219;SDS011;9744;49.364;7.484;2023-05-14T09:15:00;4.80;;;2.45;;
19219;SDS011;9744;49.364;7.484;2023-05-14T09:17:29;2.25;;;2.15;;
19219;SDS011;9744;49.364;7.484;2023-05-14T09:19:59;2.60;;;2.33;;
19219;SDS011;9744;49.364;7.484;2023-05-14T09:22:29;2.38;;;1.95;;
19219;SDS011;9744;49.364;7.484;2023-05-14T09:25:01;1.90;;;1.67;;
19219;SDS011;9744;49.364;7.484;2023-05-14T09:27:32;6.43;;;2.00;;
19219;SDS011;9744;49.364;7.484;2023-05-14T09:30:06;3.03;;;2.33;;
19219;SDS011;9744;49.364;7.484;2023-05-14T09:32:35;1.92;;;1.80;;
19219;SDS011;9744;49.364;7.484;2023-05-14T09:35:10;2.13;;;1.83;;
19219;SDS011;9744;49.364;7.484;2023-05-14T09:37:43;2.30;;;1.92;;
19219;SDS011;9744;49.364;7.484;2023-05-14T09:40:12;2.00;;;1.88;;
19219;SDS011;9744;49.364;7.484;2023-05-14T09:42:40;2.30;;;1.90;;
19219;SDS011;9744;49.364;7.484;2023-05-14T09:45:07;2.70;;;1.90;;
19219;SDS011;9744;49.364;7.484;2023-05-14T09:47:36;2.63;;;1.83;;
19219;SDS011;9744;49.364;7.484;2023-05-14T09:50:05;2.58;;;2.38;;
19219;SDS011;9744;49.364;7.484;2023-05-14T09:52:33;4.75;;;3.85;;
19219;SDS011;9744;49.364;7.484;2023-05-14T09:55:03;5.03;;;2.20;;
19219;SDS011;9744;49.364;7.484;2023-05-14T09:57:30;4.10;;;2.08;;
19219;SDS011;9744;49.364;7.484;2023-05-14T09:59:58;1.95;;;1.80;;
19219;SDS011;9744;49.364;7.484;2023-05-14T10:02:28;1.90;;;1.80;;
19219;SDS011;9744;49.364;7.484;2023-05-14T10:05:02;2.13;;;1.92;;
19219;SDS011;9744;49.364;7.484;2023-05-14T10:19:58;1.73;;;1.63;;
19219;SDS011;9744;49.364;7.484;2023-05-14T10:22:32;3.10;;;1.70;;
19219;SDS011;9744;49.364;7.484;2023-05-14T10:25:01;2.13;;;1.90;;
19219;SDS011;9744;49.364;7.484;2023-05-14T10:27:29;1.95;;;1.45;;
19219;SDS011;9744;49.364;7.484;2023-05-14T10:29:56;2.70;;;1.75;;
19219;SDS011;9744;49.364;7.484;2023-05-14T10:32:24;3.13;;;1.58;;
19219;SDS011;9744;49.364;7.484;2023-05-14T10:34:52;1.45;;;1.35;;
19219;SDS011;9744;49.364;7.484;2023-05-14T10:37:21;1.73;;;1.30;;
19219;SDS011;9744;49.364;7.484;2023-05-14T10:39:51;1.67;;;1.58;;
19219;SDS011;9744;49.364;7.484;2023-05-14T10:42:20;1.98;;;1.52;;
19219;SDS011;9744;49.364;7.484;2023-05-14T10:44:49;3.10;;;1.70;;
19219;SDS011;9744;49.364;7.484;2023-05-14T10:47:20;2.10;;;1.50;;
19219;SDS011;9744;49.364;7.484;2023-05-14T10:49:47;1.80;;;1.58;;
19219;SDS011;9744;49.364;7.484;2023-05-14T10:52:15;2.58;;;1.70;;
19219;SDS011;9744;49.364;7.484;2023-05-14T10:54:51;2.00;;;1.80;;
19219;SDS011;9744;49.364;7.484;2023-05-14T10:57:20;1.48;;;1.38;;
19219;SDS011;9744;49.364;7.484;2023-05-14T10:59:48;1.90;;;1.15;;
19219;SDS011;9744;49.364;7.484;2023-05-14T11:02:19;3.17;;;1.25;;
19219;SDS011;9744;49.364;7.484;2023-05-14T11:04:55;2.70;;;1.48;;
19219;SDS011;9744;49.364;7.484;2023-05-14T11:07:26;2.33;;;1.15;;
19219;SDS011;9744;49.364;7.484;2023-05-14T11:10:03;3.03;;;1.48;;
19219;SDS011;9744;49.364;7.484;2023-05-14T11:12:31;3.05;;;1.50;;
19219;SDS011;9744;49.364;7.484;2023-05-14T11:14:59;2.88;;;1.73;;
19219;SDS011;9744;49.364;7.484;2023-05-14T11:17:28;2.75;;;2.22;;
19219;SDS011;9744;49.364;7.484;2023-05-14T11:19:57;2.30;;;1.85;;
19219;SDS011;9744;49.364;7.484;2023-05-14T11:22:25;2.05;;;1.80;;
19219;SDS011;9744;49.364;7.484;2023-05-14T11:24:52;1.80;;;1.70;;
19219;SDS011;9744;49.364;7.484;2023-05-14T11:27:21;2.05;;;1.50;;
19219;SDS011;9744;49.364;7.484;2023-05-14T11:29:49;2.40;;;1.30;;
19219;SDS011;9744;49.364;7.484;2023-05-14T11:32:16;1.40;;;1.30;;
19219;SDS011;9744;49.364;7.484;2023-05-14T11:34:45;1.42;;;1.38;;
19219;SDS011;9744;49.364;7.484;2023-05-14T11:37:13;1.30;;;1.20;;
19219;SDS011;9744;49.364;7.484;2023-05-14T11:39:48;1.17;;;1.10;;
19219;SDS011;9744;49.364;7.484;2023-05-14T11:42:17;1.40;;;1.30;;
19219;SDS011;9744;49.364;7.484;2023-05-14T11:44:47;1.27;;;1.15;;
19219;SDS011;9744;49.364;7.484;2023-05-14T11:47:20;1.60;;;1.30;;
19219;SDS011;9744;49.364;7.484;2023-05-14T11:49:48;1.20;;;1.20;;
19219;SDS011;9744;49.364;7.484;2023-05-14T11:52:15;4.75;;;2.58;;
19219;SDS011;9744;49.364;7.484;2023-05-14T11:54:46;2.97;;;2.20;;
19219;SDS011;9744;49.364;7.484;2023-05-14T11:57:15;2.65;;;1.70;;
19219;SDS011;9744;49.364;7.484;2023-05-14T11:59:44;1.98;;;1.33;;
19219;SDS011;9744;49.364;7.484;2023-05-14T12:02:14;1.70;;;1.42;;
19219;SDS011;9744;49.364;7.484;2023-05-14T12:04:44;1.50;;;1.40;;
19219;SDS011;9744;49.364;7.484;2023-05-14T12:07:16;1.45;;;1.20;;
19219;SDS011;9744;49.364;7.484;2023-05-14T12:09:44;2.28;;;1.38;;
19219;SDS011;9744;49.364;7.484;2023-05-14T12:12:14;2.00;;;1.50;;
19219;SDS011;9744;49.364;7.484;2023-05-14T12:14:43;2.25;;;1.42;;
19219;SDS011;9744;49.364;7.484;2023-05-14T12:17:13;2.42;;;1.42;;
19219;SDS011;9744;49.364;7.484;2023-05-14T12:19:41;1.30;;;1.20;;
19219;SDS011;9744;49.364;7.484;2023-05-14T12:22:10;2.47;;;1.25;;
19219;SDS011;9744;49.364;7.484;2023-05-14T12:24:39;1.42;;;1.33;;
19219;SDS011;9744;49.364;7.484;2023-05-14T12:27:06;1.38;;;1.20;;
19219;SDS011;9744;49.364;7.484;2023-05-14T12:29:35;1.38;;;1.27;;
19219;SDS011;9744;49.364;7.484;2023-05-14T12:32:06;1.30;;;1.20;;
19219;SDS011;9744;49.364;7.484;2023-05-14T12:34:36;2.88;;;1.23;;
19219;SDS011;9744;49.364;7.484;2023-05-14T12:37:04;1.38;;;1.27;;
19219;SDS011;9744;49.364;7.484;2023-05-14T12:39:32;1.98;;;1.00;;
19219;SDS011;9744;49.364;7.484;2023-05-14T12:42:00;1.30;;;0.90;;
19219;SDS011;9744;49.364;7.484;2023-05-14T12:44:27;1.83;;;1.30;;
19219;SDS011;9744;49.364;7.484;2023-05-14T12:46:54;1.40;;;1.30;;
19219;SDS011;9744;49.364;7.484;2023-05-14T12:49:22;1.30;;;1.20;;
19219;SDS011;9744;49.364;7.484;2023-05-14T12:51:51;4.78;;;1.35;;
19219;SDS011;9744;49.364;7.484;2023-05-14T12:54:18;0.90;;;0.90;;
19219;SDS011;9744;49.364;7.484;2023-05-14T12:56:45;1.33;;;1.23;;
19219;SDS011;9744;49.364;7.484;2023-05-14T12:59:12;1.88;;;1.40;;
19219;SDS011;9744;49.364;7.484;2023-05-14T13:01:40;1.67;;;1.13;;
19219;SDS011;9744;49.364;7.484;2023-05-14T13:04:08;2.80;;;1.38;;
19219;SDS011;9744;49.364;7.484;2023-05-14T13:06:36;1.40;;;1.30;;
19219;SDS011;9744;49.364;7.484;2023-05-14T13:09:05;1.02;;;0.93;;
19219;SDS011;9744;49.364;7.484;2023-05-14T13:11:33;2.25;;;1.17;;
19219;SDS011;9744;49.364;7.484;2023-05-14T13:14:00;1.25;;;1.15;;
19219;SDS011;9744;49.364;7.484;2023-05-14T13:16:28;1.50;;;1.20;;
19219;SDS011;9744;49.364;7.484;2023-05-14T13:18:56;1.20;;;1.10;;
19219;SDS011;9744;49.364;7.484;2023-05-14T13:21:23;1.48;;;1.05;;
19219;SDS011;9744;49.364;7.484;2023-05-14T13:23:50;1.00;;;1.00;;
19219;SDS011;9744;49.364;7.484;2023-05-14T13:26:19;2.35;;;1.00;;
19219;SDS011;9744;49.364;7.484;2023-05-14T13:28:46;1.20;;;1.10;;
19219;SDS011;9744;49.364;7.484;2023-05-14T13:31:14;1.10;;;1.00;;
19219;SDS011;9744;49.364;7.484;2023-05-14T13:33:42;1.58;;;1.10;;
19219;SDS011;9744;49.364;7.484;2023-05-14T13:36:13;0.88;;;0.80;;
19219;SDS011;9744;49.364;7.484;2023-05-14T13:38:41;1.13;;;1.02;;
19219;SDS011;9744;49.364;7.484;2023-05-14T13:41:10;0.95;;;0.95;;
19219;SDS011;9744;49.364;7.484;2023-05-14T13:43:39;1.27;;;1.17;;
19219;SDS011;9744;49.364;7.484;2023-05-14T13:46:06;1.20;;;0.90;;
19219;SDS011;9744;49.364;7.484;2023-05-14T13:48:33;0.90;;;0.90;;
19219;SDS011;9744;49.364;7.484;2023-05-14T13:51:01;1.02;;;0.90;;
19219;SDS011;9744;49.364;7.484;2023-05-14T13:53:30;1.75;;;1.00;;
19219;SDS011;9744;49.364;7.484;2023-05-14T13:55:57;4.65;;;1.13;;
19219;SDS011;9744;49.364;7.484;2023-05-14T13:58:26;2.65;;;2.13;;
19219;SDS011;9744;49.364;7.484;2023-05-14T14:00:55;2.78;;;1.48;;
19219;SDS011;9744;49.364;7.484;2023-05-14T14:03:22;3.00;;;1.63;;
19219;SDS011;9744;49.364;7.484;2023-05-14T14:05:49;1.45;;;1.23;;
19219;SDS011;9744;49.364;7.484;2023-05-14T14:08:17;1.20;;;1.10;;
19219;SDS011;9744;49.364;7.484;2023-05-14T14:10:44;1.27;;;1.17;;
19219;SDS011;9744;49.364;7.484;2023-05-14T14:13:12;2.45;;;1.40;;
19219;SDS011;9744;49.364;7.484;2023-05-14T14:15:39;1.90;;;1.33;;
19219;SDS011;9744;49.364;7.484;2023-05-14T14:18:08;1.35;;;1.25;;
19219;SDS011;9744;49.364;7.484;2023-05-14T14:20:35;3.22;;;1.45;;
19219;SDS011;9744;49.364;7.484;2023-05-14T14:23:02;1.35;;;1.10;;
19219;SDS011;9744;49.364;7.484;2023-05-14T14:25:30;2.10;;;1.45;;
19219;SDS011;9744;49.364;7.484;2023-05-14T14:27:57;1.25;;;1.15;;
19219;SDS011;9744;49.364;7.484;2023-05-14T14:30:24;2.92;;;1.13;;
19219;SDS011;9744;49.364;7.484;2023-05-14T14:32:52;5.03;;;1.30;;
19219;SDS011;9744;49.364;7.484;2023-05-14T14:35:21;1.58;;;1.48;;
19219;SDS011;9744;49.364;7.484;2023-05-14T14:37:48;1.40;;;1.30;;
19219;SDS011;9744;49.364;7.484;2023-05-14T14:40:18;1.70;;;1.50;;
19219;SDS011;9744;49.364;7.484;2023-05-14T14:42:48;1.30;;;1.20;;
19219;SDS011;9744;49.364;7.484;2023-05-14T14:45:15;1.33;;;1.23;;
19219;SDS011;9744;49.364;7.484;2023-05-14T14:47:43;1.65;;;1.55;;
19219;SDS011;9744;49.364;7.484;2023-05-14T14:50:12;1.90;;;1.80;;
19219;SDS011;9744;49.364;7.484;2023-05-14T14:52:41;3.55;;;1.90;;
19219;SDS011;9744;49.364;7.484;2023-05-14T14:55:09;3.60;;;2.03;;
19219;SDS011;9744;49.364;7.484;2023-05-14T14:57:36;1.88;;;1.58;;
19219;SDS011;9744;49.364;7.484;2023-05-14T15:00:04;1.98;;;1.80;;
19219;SDS011;9744;49.364;7.484;2023-05-14T15:02:33;1.50;;;1.40;;
19219;SDS011;9744;49.364;7.484;2023-05-14T15:05:02;4.00;;;1.40;;
19219;SDS011;9744;49.364;7.484;2023-05-14T15:07:30;1.50;;;1.40;;
19219;SDS011;9744;49.364;7.484;2023-05-14T15:09:59;1.17;;;1.15;;
19219;SDS011;9744;49.364;7.484;2023-05-14T15:12:27;1.42;;;1.33;;
19219;SDS011;9744;49.364;7.484;2023-05-14T15:14:54;1.73;;;1.60;;
19219;SDS011;9744;49.364;7.484;2023-05-14T15:17:21;1.67;;;1.58;;
19219;SDS011;9744;49.364;7.484;2023-05-14T15:19:51;2.63;;;1.90;;
19219;SDS011;9744;49.364;7.484;2023-05-14T15:22:19;1.70;;;1.60;;